createdAt,value
2022-09-01T00:00:30.773Z,102589.13
2022-09-01T00:02:59.186Z,102586.63
2022-09-01T00:05:27.191Z,102577.06
2022-09-01T00:07:55.078Z,102575.38
2022-09-01T00:10:23.158Z,102567.50
2022-09-01T00:12:51.096Z,102567.56
2022-09-01T00:15:20.423Z,102567.38
2022-09-01T00:17:48.900Z,102564.84
2022-09-01T00:20:20.253Z,102560.53
2022-09-01T00:22:48.915Z,102556.97
2022-09-01T00:25:20.401Z,102558.53
2022-09-01T00:27:49.782Z,102563.91
2022-09-01T00:30:17.766Z,102563.06
2022-09-01T00:32:47.061Z,102557.91
2022-09-01T00:35:15.783Z,102559.66
2022-09-01T00:37:46.811Z,102566.59
2022-09-01T00:40:18.658Z,102565.69
2022-09-01T00:42:49.014Z,102564.75
2022-09-01T00:45:17.151Z,102560.31
2022-09-01T00:47:46.588Z,102563.91
2022-09-01T00:50:17.904Z,102556.13
2022-09-01T00:52:52.652Z,102563.91
2022-09-01T00:55:26.095Z,102566.66
2022-09-01T00:57:54.192Z,102576.22
2022-09-01T01:00:25.246Z,102570.00
2022-09-01T01:02:56.327Z,102569.00
2022-09-01T01:05:27.967Z,102574.25
2022-09-01T01:07:57.001Z,102565.50
2022-09-01T01:10:26.520Z,102565.63
2022-09-01T01:12:54.438Z,102568.31
2022-09-01T01:15:22.346Z,102559.78
2022-09-01T01:17:50.202Z,102564.97
2022-09-01T01:20:45.239Z,102563.34
2022-09-01T01:23:21.648Z,102560.03
2022-09-01T01:25:54.383Z,102564.22
2022-09-01T01:28:27.962Z,102565.16
2022-09-01T01:30:59.367Z,102564.28
2022-09-01T01:33:29.982Z,102558.16
2022-09-01T01:35:58.360Z,102559.97
2022-09-01T01:38:27.578Z,102560.78
2022-09-01T01:40:57.183Z,102556.38
2022-09-01T01:43:26.531Z,102558.03
2022-09-01T01:45:56.932Z,102556.03
2022-09-01T01:48:24.963Z,102559.78
2022-09-01T01:50:58.332Z,102554.41
2022-09-01T01:53:29.675Z,102563.84
2022-09-01T01:56:01.130Z,102554.97
2022-09-01T01:58:30.426Z,102554.75
2022-09-01T02:00:59.336Z,102552.91
2022-09-01T02:03:38.707Z,102557.94
2022-09-01T02:06:09.873Z,102551.81
2022-09-01T02:08:40.790Z,102559.59
2022-09-01T02:11:11.088Z,102563.19
2022-09-01T02:13:38.983Z,102558.94
2022-09-01T02:16:12.142Z,102561.50
2022-09-01T02:18:48.614Z,102564.84
2022-09-01T02:21:20.392Z,102557.94
2022-09-01T02:23:50.562Z,102564.25
2022-09-01T02:26:23.962Z,102555.72
2022-09-01T02:28:55.245Z,102563.72
2022-09-01T02:31:25.029Z,102561.94
2022-09-01T02:33:54.493Z,102562.88
2022-09-01T02:36:25.311Z,102561.94
2022-09-01T02:38:56.378Z,102560.25
2022-09-01T02:41:29.211Z,102561.94
2022-09-01T02:43:57.359Z,102558.47
2022-09-01T02:46:26.235Z,102554.97
2022-09-01T02:48:54.733Z,102558.41
2022-09-01T02:51:25.722Z,102557.44
2022-09-01T02:53:55.138Z,102562.69
2022-09-01T02:56:25.937Z,102558.34
2022-09-01T02:58:56.127Z,102558.41
2022-09-01T03:01:26.436Z,102558.34
2022-09-01T03:03:55.288Z,102565.38
2022-09-01T03:06:24.577Z,102567.78
2022-09-01T03:08:54.318Z,102568.50
2022-09-01T03:11:24.356Z,102564.13
2022-09-01T03:13:52.662Z,102564.84
2022-09-01T03:16:23.640Z,102561.38
2022-09-01T03:18:51.814Z,102561.31
2022-09-01T03:21:20.588Z,102559.53
2022-09-01T03:23:49.874Z,102560.38
2022-09-01T03:26:19.514Z,102571.66
2022-09-01T03:28:48.070Z,102581.13
2022-09-01T03:31:16.349Z,102566.34
2022-09-01T03:33:46.095Z,102569.69
2022-09-01T03:36:19.349Z,102562.66
2022-09-01T03:38:49.264Z,102556.34
2022-09-01T03:41:19.245Z,102565.16
2022-09-01T03:43:48.337Z,102562.53
2022-09-01T03:46:20.393Z,102571.31
2022-09-01T03:48:51.414Z,102567.69
2022-09-01T03:51:22.902Z,102571.94
2022-09-01T03:53:55.509Z,102566.94
2022-09-01T03:56:27.469Z,102568.63
2022-09-01T03:58:56.317Z,102568.56
2022-09-01T04:01:25.208Z,102573.53
2022-09-01T04:03:54.614Z,102562.91
2022-09-01T04:06:24.238Z,102566.38
2022-09-01T04:08:56.931Z,102566.44
2022-09-01T04:11:26.502Z,102572.66
2022-09-01T04:13:54.464Z,102574.38
2022-09-01T04:16:42.173Z,102572.53
2022-09-01T04:19:20.155Z,102574.16
2022-09-01T04:21:50.279Z,102571.59
2022-09-01T04:24:19.309Z,102577.06
2022-09-01T04:26:48.957Z,102584.16
2022-09-01T04:29:18.817Z,102577.97
2022-09-01T04:31:53.633Z,102580.59
2022-09-01T04:34:24.851Z,102570.91
2022-09-01T04:36:56.885Z,102575.22
2022-09-01T04:39:25.329Z,102580.34
2022-09-01T04:41:54.213Z,102575.09
2022-09-01T04:44:22.359Z,102576.72
2022-09-01T04:46:50.886Z,102580.25
2022-09-01T04:49:22.457Z,102591.75
2022-09-01T04:51:55.022Z,102582.94
2022-09-01T04:54:24.112Z,102594.38
2022-09-01T04:56:55.084Z,102585.56
2022-09-01T04:59:27.247Z,102589.94
2022-09-01T05:02:00.737Z,102584.56
2022-09-01T05:04:33.758Z,102588.06
2022-09-01T05:07:04.651Z,102593.22
2022-09-01T05:09:35.598Z,102592.25
2022-09-01T05:12:12.909Z,102587.78
2022-09-01T05:14:48.638Z,102597.41
2022-09-01T05:17:17.631Z,102593.97
2022-09-01T05:19:48.755Z,102590.28
2022-09-01T05:22:22.294Z,102593.81
2022-09-01T05:24:55.424Z,102595.59
2022-09-01T05:27:24.008Z,102586.88
2022-09-01T05:29:51.910Z,102597.22
2022-09-01T05:32:21.890Z,102599.84
2022-09-01T05:34:53.508Z,102593.63
2022-09-01T05:37:23.528Z,102591.63
2022-09-01T05:39:52.950Z,102595.25
2022-09-01T05:42:21.767Z,102602.97
2022-09-01T05:44:52.688Z,102604.88
2022-09-01T05:47:21.915Z,102603.19
2022-09-01T05:49:50.455Z,102602.25
2022-09-01T05:52:25.057Z,102598.72
2022-09-01T05:54:55.641Z,102599.50
2022-09-01T05:57:34.279Z,102590.94
2022-09-01T06:00:03.575Z,102588.88
2022-09-01T06:02:33.886Z,102583.31
2022-09-01T06:05:01.622Z,102583.69
2022-09-01T06:07:29.758Z,102574.78
2022-09-01T06:10:00.154Z,102576.66
2022-09-01T06:12:29.186Z,102582.34
2022-09-01T06:14:58.250Z,102577.06
2022-09-01T06:17:29.619Z,102576.06
2022-09-01T06:19:58.548Z,102567.88
2022-09-01T06:22:28.193Z,102575.31
2022-09-01T06:25:02.688Z,102578.28
2022-09-01T06:27:33.375Z,102579.53
2022-09-01T06:30:01.659Z,102585.09
2022-09-01T06:32:29.987Z,102584.22
2022-09-01T06:35:00.497Z,102580.69
2022-09-01T06:37:28.922Z,102583.91
2022-09-01T06:39:57.621Z,102576.38
2022-09-01T06:42:26.206Z,102571.16
2022-09-01T06:44:55.471Z,102584.34
2022-09-01T06:47:24.285Z,102581.97
2022-09-01T06:49:57.838Z,102583.81
2022-09-01T06:52:27.063Z,102589.66
2022-09-01T06:54:55.966Z,102582.13
2022-09-01T07:00:19.272Z,102589.34
2022-09-01T07:02:48.884Z,102588.69
2022-09-01T07:08:09.365Z,102591.88
2022-09-01T07:11:19.570Z,102588.59
2022-09-01T07:13:29.284Z,102583.47
2022-09-01T07:18:58.390Z,102586.28
2022-09-01T07:22:06.825Z,102591.31
2022-09-01T07:24:18.221Z,102591.13
2022-09-01T07:26:49.635Z,102598.94
2022-09-01T07:29:21.857Z,102594.44
2022-09-01T07:34:47.935Z,102592.41
2022-09-01T07:38:48.239Z,102598.94
2022-09-01T07:45:31.080Z,102611.88
2022-09-01T07:48:06.502Z,102613.72
2022-09-01T07:51:07.486Z,102617.22
2022-09-01T07:53:25.654Z,102608.22
2022-09-01T07:55:56.191Z,102604.91
2022-09-01T07:58:26.647Z,102606.34
2022-09-01T08:00:55.257Z,102609.47
2022-09-01T08:03:26.272Z,102604.13
2022-09-01T08:05:57.832Z,102610.00
2022-09-01T08:08:28.931Z,102597.56
2022-09-01T08:11:05.117Z,102610.81
2022-09-01T08:13:38.836Z,102613.97
2022-09-01T08:16:16.930Z,102613.06
2022-09-01T08:18:49.371Z,102608.53
2022-09-01T08:21:18.946Z,102606.41
2022-09-01T08:23:48.007Z,102604.25
2022-09-01T08:26:18.079Z,102604.34
2022-09-01T08:28:46.443Z,102608.72
2022-09-01T08:31:18.184Z,102607.41
2022-09-01T08:33:49.470Z,102604.50
2022-09-01T08:36:23.072Z,102612.50
2022-09-01T08:38:53.046Z,102614.53
2022-09-01T08:41:35.050Z,102613.81
2022-09-01T08:44:15.446Z,102611.44
2022-09-01T08:46:44.898Z,102615.91
2022-09-01T08:49:27.330Z,102613.13
2022-09-01T08:52:01.659Z,102614.06
2022-09-01T08:54:36.311Z,102621.09
2022-09-01T08:57:22.851Z,102618.66
2022-09-01T08:59:51.059Z,102627.50
2022-09-01T09:02:43.012Z,102621.78
2022-09-01T09:05:30.500Z,102624.59
2022-09-01T09:08:10.615Z,102615.91
2022-09-01T09:10:49.297Z,102618.22
2022-09-01T09:13:23.342Z,102617.59
2022-09-01T09:16:07.395Z,102604.50
2022-09-01T09:18:54.776Z,102605.25
2022-09-01T09:21:30.198Z,102612.56
2022-09-01T09:24:05.220Z,102608.31
2022-09-01T09:26:48.882Z,102597.84
2022-09-01T09:29:17.143Z,102600.22
2022-09-01T09:31:50.354Z,102596.47
2022-09-01T09:34:32.816Z,102598.84
2022-09-01T09:37:20.634Z,102595.16
2022-09-01T09:40:05.802Z,102597.25
2022-09-01T09:42:36.552Z,102587.47
2022-09-01T09:45:05.290Z,102589.91
2022-09-01T09:47:46.568Z,102593.41
2022-09-01T09:50:26.915Z,102593.69
2022-09-01T09:53:16.939Z,102585.78
2022-09-01T09:55:58.550Z,102590.88
2022-09-01T09:58:28.943Z,102592.31
2022-09-01T10:01:04.002Z,102589.28
2022-09-01T10:03:42.044Z,102594.28
2022-09-01T10:06:32.210Z,102589.00
2022-09-01T10:09:04.353Z,102585.44
2022-09-01T10:11:41.426Z,102593.81
2022-09-01T10:14:35.329Z,102597.88
2022-09-01T10:17:08.084Z,102592.97
2022-09-01T10:19:40.335Z,102600.41
2022-09-01T10:22:10.505Z,102605.19
2022-09-01T10:24:44.727Z,102599.78
2022-09-01T10:27:19.645Z,102609.69
2022-09-01T10:30:12.177Z,102611.16
2022-09-01T10:32:52.507Z,102610.44
2022-09-01T10:35:25.958Z,102617.88
2022-09-01T10:37:58.049Z,102623.66
2022-09-01T10:40:43.901Z,102623.47
2022-09-01T10:43:37.260Z,102626.53
2022-09-01T10:46:50.561Z,102620.78
2022-09-01T10:49:59.547Z,102619.59
2022-09-01T10:52:55.514Z,102610.34
2022-09-01T10:55:33.382Z,102607.63
2022-09-01T10:59:32.038Z,102607.78
2022-09-01T11:01:41.097Z,102616.63
2022-09-01T11:03:56.399Z,102607.09
2022-09-01T11:07:11.723Z,102607.06
2022-09-01T11:09:35.742Z,102609.97
2022-09-01T11:12:29.449Z,102607.91
2022-09-01T11:15:01.040Z,102608.34
2022-09-01T11:17:33.094Z,102605.44
2022-09-01T11:20:08.888Z,102609.38
2022-09-01T11:22:41.620Z,102605.78
2022-09-01T11:25:38.518Z,102603.31
2022-09-01T11:28:45.019Z,102605.47
2022-09-01T11:31:24.851Z,102607.31
2022-09-01T11:34:04.960Z,102607.16
2022-09-01T11:36:35.920Z,102606.28
2022-09-01T11:39:12.400Z,102605.72
2022-09-01T11:41:57.541Z,102600.84
2022-09-01T11:44:38.370Z,102597.94
2022-09-01T11:47:14.371Z,102598.81
2022-09-01T11:49:51.136Z,102586.28
2022-09-01T11:52:20.850Z,102596.72
2022-09-01T11:54:51.292Z,102591.56
2022-09-01T11:57:21.209Z,102593.19
2022-09-01T11:59:49.198Z,102592.97
2022-09-01T12:02:25.305Z,102593.47
2022-09-01T12:04:55.469Z,102593.97
2022-09-01T12:07:40.102Z,102588.78
2022-09-01T12:10:18.479Z,102586.59
2022-09-01T12:12:46.321Z,102587.69
2022-09-01T12:15:22.079Z,102584.84
2022-09-01T12:17:51.974Z,102595.22
2022-09-01T12:20:31.097Z,102590.19
2022-09-01T12:23:02.328Z,102589.69
2022-09-01T12:25:32.973Z,102590.84
2022-09-01T12:28:02.134Z,102598.84
2022-09-01T12:30:30.739Z,102598.72
2022-09-01T12:33:34.038Z,102593.56
2022-09-01T12:36:34.537Z,102593.00
2022-09-01T12:39:21.404Z,102598.50
2022-09-01T12:42:03.131Z,102593.25
2022-09-01T12:44:34.484Z,102596.28
2022-09-01T12:47:05.121Z,102593.47
2022-09-01T12:49:47.875Z,102587.94
2022-09-01T12:52:26.082Z,102589.75
2022-09-01T12:55:09.167Z,102583.53
2022-09-01T12:57:38.986Z,102582.75
2022-09-01T13:00:15.499Z,102571.75
2022-09-01T13:02:45.847Z,102579.75
2022-09-01T13:05:30.615Z,102575.63
2022-09-01T13:08:00.958Z,102575.03
2022-09-01T13:10:33.109Z,102566.94
2022-09-01T13:13:02.031Z,102566.59
2022-09-01T13:15:31.123Z,102559.09
2022-09-01T13:17:59.516Z,102566.25
2022-09-01T13:20:28.723Z,102566.66
2022-09-01T13:22:56.795Z,102565.59
2022-09-01T13:25:25.324Z,102571.47
2022-09-01T13:27:54.883Z,102568.63
2022-09-01T13:30:27.216Z,102570.13
2022-09-01T13:35:45.071Z,102549.31
2022-09-01T13:38:16.852Z,102564.69
2022-09-01T13:40:46.558Z,102567.78
2022-09-01T13:43:15.427Z,102566.75
2022-09-01T13:45:45.876Z,102573.94
2022-09-01T13:48:16.684Z,102569.03
2022-09-01T13:51:20.788Z,102560.53
2022-09-01T13:53:48.631Z,102562.63
2022-09-01T13:56:18.872Z,102552.34
2022-09-01T13:58:48.424Z,102554.97
2022-09-01T14:01:19.237Z,102560.66
2022-09-01T14:03:51.845Z,102558.09
2022-09-01T14:06:21.527Z,102563.56
2022-09-01T14:08:52.526Z,102561.56
2022-09-01T14:11:20.918Z,102560.66
2022-09-01T14:13:51.431Z,102563.31
2022-09-01T14:16:19.309Z,102556.84
2022-09-01T14:18:47.124Z,102571.50
2022-09-01T14:21:17.251Z,102564.59
2022-09-01T14:23:46.919Z,102558.56
2022-09-01T14:26:17.826Z,102552.53
2022-09-01T14:28:48.490Z,102552.63
2022-09-01T14:31:19.015Z,102550.00
2022-09-01T14:33:46.640Z,102548.50
2022-09-01T14:36:20.035Z,102554.81
2022-09-01T14:38:50.247Z,102558.22
2022-09-01T14:41:21.953Z,102558.47
2022-09-01T14:43:50.375Z,102554.72
2022-09-01T14:46:19.395Z,102564.78
2022-09-01T14:48:48.833Z,102571.56
2022-09-01T14:51:23.674Z,102597.69
2022-09-01T14:53:54.751Z,102581.53
2022-09-01T14:56:23.331Z,102578.47
2022-09-01T14:58:58.932Z,102575.59
2022-09-01T15:01:35.309Z,102563.09
2022-09-01T15:04:03.856Z,102571.16
2022-09-01T15:06:31.834Z,102562.69
2022-09-01T15:09:02.323Z,102566.09
2022-09-01T15:11:32.857Z,102562.25
2022-09-01T15:14:03.819Z,102564.72
2022-09-01T15:16:35.611Z,102563.47
2022-09-01T15:19:06.986Z,102556.06
2022-09-01T15:21:34.883Z,102560.47
2022-09-01T15:24:05.015Z,102560.66
2022-09-01T15:26:33.233Z,102562.94
2022-09-01T15:29:02.005Z,102570.50
2022-09-01T15:31:33.386Z,102571.34
2022-09-01T15:34:05.110Z,102571.19
2022-09-01T15:36:36.524Z,102574.00
2022-09-01T15:39:05.922Z,102580.44
2022-09-01T15:41:34.671Z,102579.44
2022-09-01T15:44:05.459Z,102572.03
2022-09-01T15:46:33.852Z,102572.28
2022-09-01T15:49:03.802Z,102574.47
2022-09-01T15:51:34.760Z,102571.06
2022-09-01T15:54:06.675Z,102572.88
2022-09-01T15:56:34.753Z,102567.09
2022-09-01T15:59:04.518Z,102571.47
2022-09-01T16:01:36.251Z,102567.31
2022-09-01T16:04:07.428Z,102570.75
2022-09-01T16:06:36.299Z,102576.56
2022-09-01T16:09:06.342Z,102577.59
2022-09-01T16:11:35.027Z,102574.19
2022-09-01T16:14:02.916Z,102569.78
2022-09-01T16:16:41.447Z,102566.06
2022-09-01T16:19:28.380Z,102564.13
2022-09-01T16:22:07.038Z,102562.09
2022-09-01T16:24:43.003Z,102568.19
2022-09-01T16:27:16.426Z,102557.75
2022-09-01T16:29:49.118Z,102556.66
2022-09-01T16:32:19.950Z,102555.91
2022-09-01T16:34:48.318Z,102549.59
2022-09-01T16:37:28.833Z,102551.41
2022-09-01T16:40:05.771Z,102555.38
2022-09-01T16:42:47.160Z,102554.94
2022-09-01T16:45:36.844Z,102562.69
2022-09-01T16:48:15.027Z,102558.44
2022-09-01T16:50:54.475Z,102562.84
2022-09-01T16:53:35.519Z,102563.50
2022-09-01T16:56:08.536Z,102568.19
2022-09-01T16:58:49.223Z,102562.84
2022-09-01T17:01:25.952Z,102568.34
2022-09-01T17:04:02.398Z,102560.63
2022-09-01T17:06:36.577Z,102561.66
2022-09-01T17:09:11.588Z,102567.34
2022-09-01T17:11:49.611Z,102569.13
2022-09-01T17:14:27.910Z,102562.59
2022-09-01T17:17:06.823Z,102566.53
2022-09-01T17:19:35.467Z,102568.47
2022-09-01T17:22:07.118Z,102569.63
2022-09-01T17:24:38.565Z,102569.88
2022-09-01T17:27:15.082Z,102569.03
2022-09-01T17:29:45.883Z,102572.06
2022-09-01T17:32:36.508Z,102568.72
2022-09-01T17:35:15.078Z,102569.13
2022-09-01T17:37:57.127Z,102570.13
2022-09-01T17:40:33.023Z,102570.28
2022-09-01T17:43:10.415Z,102582.88
2022-09-01T17:45:51.226Z,102578.63
2022-09-01T17:48:25.642Z,102573.59
2022-09-01T17:51:05.467Z,102580.09
2022-09-01T17:53:43.330Z,102581.34
2022-09-01T17:56:27.383Z,102574.66
2022-09-01T17:59:05.039Z,102581.06
2022-09-01T18:01:40.029Z,102574.34
2022-09-01T18:04:25.942Z,102579.97
2022-09-01T18:06:59.547Z,102583.44
2022-09-01T18:09:29.992Z,102581.09
2022-09-01T18:12:00.900Z,102597.50
2022-09-01T18:14:37.083Z,102583.53
2022-09-01T18:17:11.975Z,102578.22
2022-09-01T18:19:42.299Z,102584.56
2022-09-01T18:22:15.515Z,102589.34
2022-09-01T18:24:51.325Z,102591.97
2022-09-01T18:27:19.198Z,102589.47
2022-09-01T18:29:53.764Z,102593.84
2022-09-01T18:32:42.011Z,102590.47
2022-09-01T18:35:20.602Z,102590.47
2022-09-01T18:38:03.559Z,102595.00
2022-09-01T18:40:34.765Z,102588.13
2022-09-01T18:43:16.184Z,102585.59
2022-09-01T18:45:51.117Z,102588.22
2022-09-01T18:48:31.351Z,102596.34
2022-09-01T18:51:07.412Z,102591.25
2022-09-01T18:53:43.409Z,102595.63
2022-09-01T18:56:21.403Z,102587.97
2022-09-01T18:59:01.191Z,102597.81
2022-09-01T19:01:34.692Z,102599.66
2022-09-01T19:04:11.375Z,102600.75
2022-09-01T19:06:53.224Z,102603.44
2022-09-01T19:09:29.737Z,102603.50
2022-09-01T19:12:15.983Z,102607.09
2022-09-01T19:14:52.239Z,102601.16
2022-09-01T19:17:35.688Z,102597.59
2022-09-01T19:20:06.843Z,102604.66
2022-09-01T19:22:44.412Z,102601.28
2022-09-01T19:25:32.270Z,102606.66
2022-09-01T19:28:05.950Z,102609.41
2022-09-01T19:30:35.706Z,102611.91
2022-09-01T19:33:06.788Z,102613.53
2022-09-01T19:35:36.646Z,102609.22
2022-09-01T19:38:06.848Z,102607.44
2022-09-01T19:40:38.868Z,102604.94
2022-09-01T19:43:09.364Z,102606.81
2022-09-01T19:45:41.890Z,102605.34
2022-09-01T19:48:16.075Z,102600.75
2022-09-01T19:50:51.034Z,102606.13
2022-09-01T19:53:32.425Z,102603.59
2022-09-01T19:56:08.203Z,102593.09
2022-09-01T19:58:45.842Z,102600.97
2022-09-01T20:01:17.070Z,102602.78
2022-09-01T20:03:51.867Z,102604.66
2022-09-01T20:06:33.461Z,102605.53
2022-09-01T20:09:08.754Z,102597.75
2022-09-01T20:11:47.671Z,102595.91
2022-09-01T20:14:34.723Z,102599.41
2022-09-01T20:17:06.783Z,102598.53
2022-09-01T20:19:43.501Z,102607.97
2022-09-01T20:22:23.838Z,102608.75
2022-09-01T20:25:08.504Z,102609.56
2022-09-01T20:27:46.900Z,102609.34
2022-09-01T20:30:18.952Z,102611.03
2022-09-01T20:32:52.219Z,102614.59
2022-09-01T20:35:25.854Z,102605.88
2022-09-01T20:37:59.844Z,102611.13
2022-09-01T20:40:30.867Z,102609.50
2022-09-01T20:43:18.472Z,102610.44
2022-09-01T20:45:46.939Z,102621.00
2022-09-01T20:48:17.259Z,102623.00
2022-09-01T20:50:52.940Z,102616.16
2022-09-01T20:53:32.931Z,102622.25
2022-09-01T20:56:08.747Z,102617.16
2022-09-01T20:58:41.471Z,102622.25
2022-09-01T21:01:18.112Z,102621.41
2022-09-01T21:04:05.915Z,102619.09
2022-09-01T21:06:48.539Z,102622.53
2022-09-01T21:09:25.434Z,102625.41
2022-09-01T21:11:58.779Z,102637.69
2022-09-01T21:14:40.880Z,102639.44
2022-09-01T21:17:19.547Z,102635.19
2022-09-01T21:19:53.397Z,102637.31
2022-09-01T21:22:22.963Z,102641.50
2022-09-01T21:24:51.326Z,102645.13
2022-09-01T21:27:22.706Z,102640.00
2022-09-01T21:29:56.653Z,102635.63
2022-09-01T21:32:25.271Z,102635.44
2022-09-01T21:34:54.165Z,102634.66
2022-09-01T21:37:24.155Z,102630.34
2022-09-01T21:39:54.098Z,102632.75
2022-09-01T21:42:25.382Z,102626.59
2022-09-01T21:44:55.257Z,102626.47
2022-09-01T21:47:23.391Z,102625.78
2022-09-01T21:49:51.314Z,102619.47
2022-09-01T21:52:19.308Z,102621.97
2022-09-01T21:54:48.575Z,102623.72
2022-09-01T21:57:16.670Z,102621.16
2022-09-01T21:59:44.684Z,102620.16
2022-09-01T22:02:13.040Z,102620.97
2022-09-01T22:04:41.056Z,102621.59
2022-09-01T22:07:21.099Z,102618.84
2022-09-01T22:09:50.398Z,102618.84
2022-09-01T22:12:18.342Z,102628.63
2022-09-01T22:14:46.220Z,102624.28
2022-09-01T22:17:14.084Z,102624.22
2022-09-01T22:19:42.074Z,102626.78
2022-09-01T22:22:12.840Z,102625.94
2022-09-01T22:24:40.734Z,102629.47
2022-09-01T22:27:10.032Z,102627.63
2022-09-01T22:29:38.035Z,102626.78
2022-09-01T22:32:06.180Z,102624.16
2022-09-01T22:34:34.452Z,102626.78
2022-09-01T22:37:02.545Z,102628.50
2022-09-01T22:39:30.510Z,102623.44
2022-09-01T22:41:58.431Z,102631.38
2022-09-01T22:44:27.720Z,102624.47
2022-09-01T22:46:55.566Z,102625.34
2022-09-01T22:49:23.467Z,102629.88
2022-09-01T22:51:51.479Z,102627.53
2022-09-01T22:54:19.393Z,102625.09
2022-09-01T22:56:49.858Z,102634.84
2022-09-01T22:59:17.609Z,102632.06
2022-09-01T23:01:48.736Z,102631.16
2022-09-01T23:04:17.508Z,102622.56
2022-09-01T23:06:49.923Z,102628.19
2022-09-01T23:09:18.999Z,102629.94
2022-09-01T23:11:47.330Z,102626.56
2022-09-01T23:14:15.414Z,102621.31
2022-09-01T23:16:43.715Z,102624.13
2022-09-01T23:19:12.998Z,102619.00
2022-09-01T23:21:41.086Z,102617.25
2022-09-01T23:24:09.174Z,102621.69
2022-09-01T23:26:37.359Z,102631.28
2022-09-01T23:29:06.044Z,102631.34
2022-09-01T23:31:37.116Z,102615.78
2022-09-01T23:34:06.042Z,102621.94
2022-09-01T23:36:36.087Z,102620.31
2022-09-01T23:39:06.487Z,102611.66
2022-09-01T23:41:36.404Z,102609.06
2022-09-01T23:44:09.484Z,102612.59
2022-09-01T23:46:40.177Z,102605.56
2022-09-01T23:49:08.241Z,102608.97
2022-09-01T23:51:38.885Z,102615.16
2022-09-01T23:54:07.365Z,102627.28
2022-09-01T23:56:35.267Z,102622.19
2022-09-01T23:59:03.467Z,102618.72
